sensor_id;sensor_type;location;lat;lon;timestamp;P1;durP1;ratioP1;P2;durP2;ratioP2
26277;SDS011;14000;52.056;8.510;2022-12-29T00:01:34;6.50;;;1.53;;
26277;SDS011;14000;52.056;8.510;2022-12-29T00:04:00;5.47;;;1.53;;
26277;SDS011;14000;52.056;8.510;2022-12-29T00:06:26;5.17;;;1.50;;
26277;SDS011;14000;52.056;8.510;2022-12-29T00:08:52;5.90;;;1.60;;
26277;SDS011;14000;52.056;8.510;2022-12-29T00:11:19;6.67;;;1.60;;
26277;SDS011;14000;52.056;8.510;2022-12-29T00:13:46;7.00;;;1.67;;
26277;SDS011;14000;52.056;8.510;2022-12-29T00:16:32;6.33;;;1.73;;
26277;SDS011;14000;52.056;8.510;2022-12-29T00:18:59;6.47;;;1.47;;
26277;SDS011;14000;52.056;8.510;2022-12-29T00:21:25;8.37;;;1.77;;
26277;SDS011;14000;52.056;8.510;2022-12-29T00:24:12;6.83;;;1.73;;
26277;SDS011;14000;52.056;8.510;2022-12-29T00:26:55;5.87;;;1.50;;
26277;SDS011;14000;52.056;8.510;2022-12-29T00:29:46;6.03;;;1.50;;
26277;SDS011;14000;52.056;8.510;2022-12-29T00:32:33;4.77;;;1.40;;
26277;SDS011;14000;52.056;8.510;2022-12-29T00:35:22;5.37;;;1.60;;
26277;SDS011;14000;52.056;8.510;2022-12-29T00:38:02;6.13;;;1.50;;
26277;SDS011;14000;52.056;8.510;2022-12-29T00:40:50;5.57;;;1.60;;
26277;SDS011;14000;52.056;8.510;2022-12-29T00:43:34;6.27;;;1.60;;
26277;SDS011;14000;52.056;8.510;2022-12-29T00:46:19;6.03;;;1.60;;
26277;SDS011;14000;52.056;8.510;2022-12-29T00:48:45;5.97;;;1.47;;
26277;SDS011;14000;52.056;8.510;2022-12-29T00:51:29;4.43;;;1.43;;
26277;SDS011;14000;52.056;8.510;2022-12-29T00:53:55;7.00;;;1.70;;
26277;SDS011;14000;52.056;8.510;2022-12-29T00:56:20;5.33;;;1.50;;
26277;SDS011;14000;52.056;8.510;2022-12-29T00:58:46;7.40;;;1.60;;
26277;SDS011;14000;52.056;8.510;2022-12-29T01:01:12;4.80;;;1.50;;
26277;SDS011;14000;52.056;8.510;2022-12-29T01:03:37;6.43;;;1.43;;
26277;SDS011;14000;52.056;8.510;2022-12-29T01:06:04;4.90;;;1.47;;
26277;SDS011;14000;52.056;8.510;2022-12-29T01:08:32;6.77;;;1.67;;
26277;SDS011;14000;52.056;8.510;2022-12-29T01:10:59;5.03;;;1.30;;
26277;SDS011;14000;52.056;8.510;2022-12-29T01:13:26;5.20;;;1.50;;
26277;SDS011;14000;52.056;8.510;2022-12-29T01:15:52;5.93;;;1.60;;
26277;SDS011;14000;52.056;8.510;2022-12-29T01:18:18;4.77;;;1.50;;
26277;SDS011;14000;52.056;8.510;2022-12-29T01:20:44;4.73;;;1.50;;
26277;SDS011;14000;52.056;8.510;2022-12-29T01:23:09;4.17;;;1.30;;
26277;SDS011;14000;52.056;8.510;2022-12-29T01:25:35;5.43;;;1.53;;
26277;SDS011;14000;52.056;8.510;2022-12-29T01:28:00;4.57;;;1.30;;
26277;SDS011;14000;52.056;8.510;2022-12-29T01:30:26;4.53;;;1.40;;
26277;SDS011;14000;52.056;8.510;2022-12-29T01:32:51;4.70;;;1.40;;
26277;SDS011;14000;52.056;8.510;2022-12-29T01:35:17;5.37;;;1.50;;
26277;SDS011;14000;52.056;8.510;2022-12-29T01:37:42;4.53;;;1.30;;
26277;SDS011;14000;52.056;8.510;2022-12-29T01:40:08;5.40;;;1.50;;
26277;SDS011;14000;52.056;8.510;2022-12-29T01:42:34;5.60;;;1.60;;
26277;SDS011;14000;52.056;8.510;2022-12-29T01:45:03;4.47;;;1.60;;
26277;SDS011;14000;52.056;8.510;2022-12-29T01:47:38;4.57;;;1.60;;
26277;SDS011;14000;52.056;8.510;2022-12-29T01:50:20;5.43;;;1.60;;
26277;SDS011;14000;52.056;8.510;2022-12-29T01:53:27;5.60;;;1.33;;
26277;SDS011;14000;52.056;8.510;2022-12-29T01:55:56;4.43;;;1.27;;
26277;SDS011;14000;52.056;8.510;2022-12-29T01:58:29;3.97;;;1.23;;
26277;SDS011;14000;52.056;8.510;2022-12-29T02:00:58;4.27;;;1.27;;
26277;SDS011;14000;52.056;8.510;2022-12-29T02:03:24;4.77;;;1.20;;
26277;SDS011;14000;52.056;8.510;2022-12-29T02:05:58;4.10;;;1.20;;
26277;SDS011;14000;52.056;8.510;2022-12-29T02:08:29;5.43;;;1.30;;
26277;SDS011;14000;52.056;8.510;2022-12-29T02:10:55;3.73;;;1.10;;
26277;SDS011;14000;52.056;8.510;2022-12-29T02:13:24;5.67;;;1.40;;
26277;SDS011;14000;52.056;8.510;2022-12-29T02:19:00;4.33;;;1.30;;
26277;SDS011;14000;52.056;8.510;2022-12-29T02:24:36;5.30;;;1.83;;
26277;SDS011;14000;52.056;8.510;2022-12-29T02:32:37;6.27;;;2.47;;
26277;SDS011;14000;52.056;8.510;2022-12-29T02:35:10;5.80;;;2.03;;
26277;SDS011;14000;52.056;8.510;2022-12-29T02:38:00;5.33;;;1.77;;
26277;SDS011;14000;52.056;8.510;2022-12-29T02:40:46;4.27;;;1.60;;
26277;SDS011;14000;52.056;8.510;2022-12-29T02:46:04;5.27;;;1.77;;
26277;SDS011;14000;52.056;8.510;2022-12-29T02:48:41;4.53;;;1.60;;
26277;SDS011;14000;52.056;8.510;2022-12-29T02:51:15;5.90;;;1.87;;
26277;SDS011;14000;52.056;8.510;2022-12-29T02:53:44;5.63;;;2.00;;
26277;SDS011;14000;52.056;8.510;2022-12-29T02:56:29;5.00;;;1.50;;
26277;SDS011;14000;52.056;8.510;2022-12-29T02:58:55;4.17;;;1.80;;
26277;SDS011;14000;52.056;8.510;2022-12-29T03:14:59;2.60;;;1.10;;
26277;SDS011;14000;52.056;8.510;2022-12-29T03:20:20;4.23;;;1.03;;
26277;SDS011;14000;52.056;8.510;2022-12-29T03:22:51;3.67;;;1.00;;
26277;SDS011;14000;52.056;8.510;2022-12-29T03:25:26;3.07;;;0.90;;
26277;SDS011;14000;52.056;8.510;2022-12-29T03:27:56;5.10;;;1.10;;
26277;SDS011;14000;52.056;8.510;2022-12-29T03:30:25;3.23;;;1.07;;
26277;SDS011;14000;52.056;8.510;2022-12-29T03:32:58;2.23;;;0.70;;
26277;SDS011;14000;52.056;8.510;2022-12-29T03:35:27;2.43;;;0.80;;
26277;SDS011;14000;52.056;8.510;2022-12-29T03:40:50;2.43;;;0.80;;
26277;SDS011;14000;52.056;8.510;2022-12-29T03:43:20;1.73;;;0.70;;
26277;SDS011;14000;52.056;8.510;2022-12-29T03:45:47;2.57;;;0.77;;
26277;SDS011;14000;52.056;8.510;2022-12-29T03:48:12;2.57;;;0.70;;
26277;SDS011;14000;52.056;8.510;2022-12-29T03:50:38;4.60;;;0.80;;
26277;SDS011;14000;52.056;8.510;2022-12-29T03:53:03;2.43;;;0.70;;
26277;SDS011;14000;52.056;8.510;2022-12-29T03:55:29;1.70;;;0.70;;
26277;SDS011;14000;52.056;8.510;2022-12-29T03:57:54;1.63;;;0.70;;
26277;SDS011;14000;52.056;8.510;2022-12-29T04:00:20;2.93;;;0.87;;
26277;SDS011;14000;52.056;8.510;2022-12-29T04:02:45;2.47;;;0.70;;
26277;SDS011;14000;52.056;8.510;2022-12-29T04:05:11;3.27;;;0.80;;
26277;SDS011;14000;52.056;8.510;2022-12-29T04:07:37;1.10;;;0.57;;
26277;SDS011;14000;52.056;8.510;2022-12-29T04:10:02;3.77;;;0.77;;
26277;SDS011;14000;52.056;8.510;2022-12-29T04:12:28;4.30;;;1.00;;
26277;SDS011;14000;52.056;8.510;2022-12-29T04:14:54;4.37;;;0.83;;
26277;SDS011;14000;52.056;8.510;2022-12-29T04:17:20;2.20;;;0.67;;
26277;SDS011;14000;52.056;8.510;2022-12-29T04:19:45;2.47;;;0.70;;
26277;SDS011;14000;52.056;8.510;2022-12-29T04:22:11;2.27;;;0.70;;
26277;SDS011;14000;52.056;8.510;2022-12-29T04:24:37;3.10;;;0.80;;
26277;SDS011;14000;52.056;8.510;2022-12-29T04:27:02;2.20;;;0.63;;
26277;SDS011;14000;52.056;8.510;2022-12-29T04:29:28;3.73;;;0.80;;
26277;SDS011;14000;52.056;8.510;2022-12-29T04:31:54;2.87;;;0.87;;
26277;SDS011;14000;52.056;8.510;2022-12-29T04:34:19;3.00;;;0.73;;
26277;SDS011;14000;52.056;8.510;2022-12-29T04:36:45;4.63;;;0.80;;
26277;SDS011;14000;52.056;8.510;2022-12-29T04:39:10;3.97;;;0.90;;
26277;SDS011;14000;52.056;8.510;2022-12-29T04:41:36;4.60;;;1.00;;
26277;SDS011;14000;52.056;8.510;2022-12-29T04:44:02;2.70;;;0.90;;
26277;SDS011;14000;52.056;8.510;2022-12-29T04:46:27;3.40;;;0.90;;
26277;SDS011;14000;52.056;8.510;2022-12-29T04:48:53;4.60;;;1.10;;
26277;SDS011;14000;52.056;8.510;2022-12-29T04:51:18;3.43;;;0.90;;
26277;SDS011;14000;52.056;8.510;2022-12-29T04:53:44;3.40;;;1.20;;
26277;SDS011;14000;52.056;8.510;2022-12-29T04:56:09;3.63;;;0.90;;
26277;SDS011;14000;52.056;8.510;2022-12-29T04:58:35;4.00;;;1.00;;
26277;SDS011;14000;52.056;8.510;2022-12-29T05:01:01;2.23;;;0.87;;
26277;SDS011;14000;52.056;8.510;2022-12-29T05:03:26;2.97;;;0.87;;
26277;SDS011;14000;52.056;8.510;2022-12-29T05:05:53;4.00;;;0.93;;
26277;SDS011;14000;52.056;8.510;2022-12-29T05:08:20;4.27;;;0.90;;
26277;SDS011;14000;52.056;8.510;2022-12-29T05:10:45;3.57;;;1.00;;
26277;SDS011;14000;52.056;8.510;2022-12-29T05:13:11;3.40;;;0.97;;
26277;SDS011;14000;52.056;8.510;2022-12-29T05:15:37;2.90;;;0.90;;
26277;SDS011;14000;52.056;8.510;2022-12-29T05:18:02;2.97;;;1.03;;
26277;SDS011;14000;52.056;8.510;2022-12-29T05:20:28;3.30;;;1.10;;
26277;SDS011;14000;52.056;8.510;2022-12-29T05:22:53;4.47;;;1.10;;
26277;SDS011;14000;52.056;8.510;2022-12-29T05:25:19;3.17;;;0.97;;
26277;SDS011;14000;52.056;8.510;2022-12-29T05:27:44;4.23;;;0.90;;
26277;SDS011;14000;52.056;8.510;2022-12-29T05:30:10;2.27;;;0.80;;
26277;SDS011;14000;52.056;8.510;2022-12-29T05:32:36;3.00;;;0.90;;
26277;SDS011;14000;52.056;8.510;2022-12-29T05:35:02;4.77;;;1.10;;
26277;SDS011;14000;52.056;8.510;2022-12-29T05:37:28;3.10;;;0.90;;
26277;SDS011;14000;52.056;8.510;2022-12-29T05:39:53;3.67;;;0.90;;
26277;SDS011;14000;52.056;8.510;2022-12-29T05:42:19;2.80;;;0.80;;
26277;SDS011;14000;52.056;8.510;2022-12-29T05:44:44;2.60;;;0.80;;
26277;SDS011;14000;52.056;8.510;2022-12-29T05:47:10;2.83;;;0.90;;
26277;SDS011;14000;52.056;8.510;2022-12-29T05:49:35;3.70;;;0.90;;
26277;SDS011;14000;52.056;8.510;2022-12-29T05:52:01;3.53;;;0.90;;
26277;SDS011;14000;52.056;8.510;2022-12-29T05:54:26;2.97;;;0.83;;
26277;SDS011;14000;52.056;8.510;2022-12-29T05:56:52;2.87;;;0.90;;
26277;SDS011;14000;52.056;8.510;2022-12-29T05:59:18;2.10;;;0.67;;
26277;SDS011;14000;52.056;8.510;2022-12-29T06:01:43;2.77;;;0.87;;
26277;SDS011;14000;52.056;8.510;2022-12-29T06:04:09;2.23;;;0.80;;
26277;SDS011;14000;52.056;8.510;2022-12-29T06:06:34;4.03;;;1.00;;
26277;SDS011;14000;52.056;8.510;2022-12-29T06:09:00;4.50;;;1.00;;
26277;SDS011;14000;52.056;8.510;2022-12-29T06:11:25;2.67;;;1.00;;
26277;SDS011;14000;52.056;8.510;2022-12-29T06:13:51;3.77;;;0.80;;
26277;SDS011;14000;52.056;8.510;2022-12-29T06:16:16;4.63;;;1.10;;
26277;SDS011;14000;52.056;8.510;2022-12-29T06:18:42;3.87;;;0.90;;
26277;SDS011;14000;52.056;8.510;2022-12-29T06:21:08;11.27;;;1.40;;
26277;SDS011;14000;52.056;8.510;2022-12-29T06:23:33;7.57;;;1.00;;
26277;SDS011;14000;52.056;8.510;2022-12-29T06:25:59;3.90;;;0.70;;
26277;SDS011;14000;52.056;8.510;2022-12-29T06:28:24;5.93;;;1.00;;
26277;SDS011;14000;52.056;8.510;2022-12-29T06:30:50;3.27;;;0.70;;
26277;SDS011;14000;52.056;8.510;2022-12-29T06:33:15;4.50;;;0.90;;
26277;SDS011;14000;52.056;8.510;2022-12-29T06:35:42;5.93;;;1.00;;
26277;SDS011;14000;52.056;8.510;2022-12-29T06:38:08;4.57;;;1.20;;
26277;SDS011;14000;52.056;8.510;2022-12-29T06:40:33;2.27;;;0.90;;
26277;SDS011;14000;52.056;8.510;2022-12-29T06:42:59;4.53;;;0.87;;
26277;SDS011;14000;52.056;8.510;2022-12-29T06:45:25;9.57;;;1.40;;
26277;SDS011;14000;52.056;8.510;2022-12-29T06:47:50;4.80;;;1.50;;
26277;SDS011;14000;52.056;8.510;2022-12-29T06:50:16;5.87;;;1.60;;
26277;SDS011;14000;52.056;8.510;2022-12-29T06:52:41;8.07;;;1.70;;
26277;SDS011;14000;52.056;8.510;2022-12-29T06:55:07;6.13;;;1.70;;
26277;SDS011;14000;52.056;8.510;2022-12-29T06:57:33;5.27;;;1.50;;
26277;SDS011;14000;52.056;8.510;2022-12-29T06:59:59;8.57;;;2.00;;
26277;SDS011;14000;52.056;8.510;2022-12-29T07:02:25;6.23;;;1.80;;
26277;SDS011;14000;52.056;8.510;2022-12-29T07:04:51;8.50;;;2.00;;
26277;SDS011;14000;52.056;8.510;2022-12-29T07:07:17;6.70;;;1.90;;
26277;SDS011;14000;52.056;8.510;2022-12-29T07:09:44;5.30;;;1.73;;
26277;SDS011;14000;52.056;8.510;2022-12-29T07:12:10;8.97;;;2.03;;
26277;SDS011;14000;52.056;8.510;2022-12-29T07:14:36;5.97;;;1.80;;
26277;SDS011;14000;52.056;8.510;2022-12-29T07:17:01;8.50;;;2.10;;
26277;SDS011;14000;52.056;8.510;2022-12-29T07:19:30;7.17;;;1.90;;
26277;SDS011;14000;52.056;8.510;2022-12-29T07:21:56;6.03;;;1.90;;
26277;SDS011;14000;52.056;8.510;2022-12-29T07:24:21;6.70;;;1.53;;
26277;SDS011;14000;52.056;8.510;2022-12-29T07:26:47;4.80;;;1.60;;
26277;SDS011;14000;52.056;8.510;2022-12-29T07:29:12;7.23;;;1.47;;
26277;SDS011;14000;52.056;8.510;2022-12-29T07:31:38;6.73;;;1.40;;
26277;SDS011;14000;52.056;8.510;2022-12-29T07:34:03;9.03;;;2.77;;
26277;SDS011;14000;52.056;8.510;2022-12-29T07:36:29;9.80;;;1.83;;
26277;SDS011;14000;52.056;8.510;2022-12-29T07:38:55;7.87;;;1.60;;
26277;SDS011;14000;52.056;8.510;2022-12-29T07:41:20;7.60;;;1.33;;
26277;SDS011;14000;52.056;8.510;2022-12-29T07:43:47;10.50;;;1.50;;
26277;SDS011;14000;52.056;8.510;2022-12-29T07:46:13;10.43;;;1.47;;
26277;SDS011;14000;52.056;8.510;2022-12-29T07:48:39;10.33;;;1.60;;
26277;SDS011;14000;52.056;8.510;2022-12-29T07:51:05;9.47;;;1.40;;
26277;SDS011;14000;52.056;8.510;2022-12-29T07:53:31;9.43;;;1.50;;
26277;SDS011;14000;52.056;8.510;2022-12-29T07:55:57;10.87;;;1.33;;
26277;SDS011;14000;52.056;8.510;2022-12-29T07:58:22;8.67;;;1.20;;
26277;SDS011;14000;52.056;8.510;2022-12-29T08:00:52;8.57;;;1.57;;
26277;SDS011;14000;52.056;8.510;2022-12-29T08:03:21;10.63;;;1.50;;
26277;SDS011;14000;52.056;8.510;2022-12-29T08:05:47;6.43;;;1.23;;
26277;SDS011;14000;52.056;8.510;2022-12-29T08:08:13;7.10;;;1.20;;
26277;SDS011;14000;52.056;8.510;2022-12-29T08:10:38;7.50;;;1.40;;
26277;SDS011;14000;52.056;8.510;2022-12-29T08:13:04;6.10;;;1.30;;
26277;SDS011;14000;52.056;8.510;2022-12-29T08:15:30;9.00;;;1.40;;
26277;SDS011;14000;52.056;8.510;2022-12-29T08:17:55;6.43;;;1.30;;
26277;SDS011;14000;52.056;8.510;2022-12-29T08:20:21;6.50;;;1.50;;
26277;SDS011;14000;52.056;8.510;2022-12-29T08:22:46;8.57;;;1.50;;
26277;SDS011;14000;52.056;8.510;2022-12-29T08:25:12;9.27;;;1.67;;
26277;SDS011;14000;52.056;8.510;2022-12-29T08:27:37;8.30;;;1.53;;
26277;SDS011;14000;52.056;8.510;2022-12-29T08:30:03;7.87;;;1.80;;
26277;SDS011;14000;52.056;8.510;2022-12-29T08:32:29;10.00;;;1.60;;
26277;SDS011;14000;52.056;8.510;2022-12-29T08:34:55;5.07;;;1.37;;
26277;SDS011;14000;52.056;8.510;2022-12-29T08:37:21;9.07;;;1.60;;
26277;SDS011;14000;52.056;8.510;2022-12-29T08:39:47;10.80;;;1.67;;
26277;SDS011;14000;52.056;8.510;2022-12-29T08:42:13;7.77;;;1.57;;
26277;SDS011;14000;52.056;8.510;2022-12-29T08:44:38;10.13;;;1.70;;
26277;SDS011;14000;52.056;8.510;2022-12-29T08:47:04;9.50;;;1.70;;
26277;SDS011;14000;52.056;8.510;2022-12-29T08:49:30;8.43;;;1.80;;
26277;SDS011;14000;52.056;8.510;2022-12-29T08:51:55;7.50;;;1.47;;
26277;SDS011;14000;52.056;8.510;2022-12-29T08:54:21;8.20;;;1.33;;
26277;SDS011;14000;52.056;8.510;2022-12-29T08:56:47;7.67;;;1.50;;
26277;SDS011;14000;52.056;8.510;2022-12-29T08:59:12;7.47;;;1.30;;
26277;SDS011;14000;52.056;8.510;2022-12-29T09:01:38;8.23;;;1.57;;
26277;SDS011;14000;52.056;8.510;2022-12-29T09:04:05;8.47;;;1.73;;
26277;SDS011;14000;52.056;8.510;2022-12-29T09:06:31;7.60;;;1.50;;
26277;SDS011;14000;52.056;8.510;2022-12-29T09:08:56;12.20;;;1.87;;
26277;SDS011;14000;52.056;8.510;2022-12-29T09:11:23;9.13;;;1.60;;
26277;SDS011;14000;52.056;8.510;2022-12-29T09:13:50;7.90;;;1.43;;
26277;SDS011;14000;52.056;8.510;2022-12-29T09:16:16;10.13;;;2.10;;
26277;SDS011;14000;52.056;8.510;2022-12-29T09:18:43;9.20;;;1.93;;
26277;SDS011;14000;52.056;8.510;2022-12-29T09:21:09;6.83;;;1.67;;
26277;SDS011;14000;52.056;8.510;2022-12-29T09:23:36;8.00;;;1.70;;
26277;SDS011;14000;52.056;8.510;2022-12-29T09:26:02;9.70;;;1.77;;
26277;SDS011;14000;52.056;8.510;2022-12-29T09:28:29;7.23;;;1.70;;
26277;SDS011;14000;52.056;8.510;2022-12-29T09:30:55;11.20;;;1.93;;
26277;SDS011;14000;52.056;8.510;2022-12-29T09:33:21;7.13;;;2.03;;
26277;SDS011;14000;52.056;8.510;2022-12-29T09:35:52;8.17;;;1.63;;
26277;SDS011;14000;52.056;8.510;2022-12-29T09:38:19;8.33;;;1.80;;
26277;SDS011;14000;52.056;8.510;2022-12-29T09:40:48;6.60;;;1.50;;
26277;SDS011;14000;52.056;8.510;2022-12-29T09:43:23;7.83;;;1.70;;
26277;SDS011;14000;52.056;8.510;2022-12-29T09:46:39;9.87;;;1.80;;
26277;SDS011;14000;52.056;8.510;2022-12-29T09:48:40;10.43;;;1.90;;
26277;SDS011;14000;52.056;8.510;2022-12-29T09:51:11;8.37;;;2.03;;
26277;SDS011;14000;52.056;8.510;2022-12-29T09:53:43;9.13;;;1.83;;
26277;SDS011;14000;52.056;8.510;2022-12-29T09:56:17;8.97;;;1.80;;
26277;SDS011;14000;52.056;8.510;2022-12-29T09:58:51;8.03;;;1.90;;
26277;SDS011;14000;52.056;8.510;2022-12-29T10:01:26;7.77;;;1.63;;
26277;SDS011;14000;52.056;8.510;2022-12-29T10:03:54;8.70;;;1.73;;
26277;SDS011;14000;52.056;8.510;2022-12-29T10:09:31;11.93;;;2.00;;
26277;SDS011;14000;52.056;8.510;2022-12-29T10:25:31;10.80;;;1.80;;
26277;SDS011;14000;52.056;8.510;2022-12-29T10:28:03;13.50;;;2.20;;
26277;SDS011;14000;52.056;8.510;2022-12-29T10:30:50;10.47;;;1.87;;
26277;SDS011;14000;52.056;8.510;2022-12-29T10:33:19;8.90;;;1.63;;
26277;SDS011;14000;52.056;8.510;2022-12-29T10:35:50;9.47;;;1.97;;
26277;SDS011;14000;52.056;8.510;2022-12-29T10:38:25;12.73;;;2.13;;
26277;SDS011;14000;52.056;8.510;2022-12-29T10:43:35;13.93;;;1.97;;
26277;SDS011;14000;52.056;8.510;2022-12-29T10:46:11;11.30;;;1.97;;
26277;SDS011;14000;52.056;8.510;2022-12-29T10:48:41;14.27;;;2.30;;
26277;SDS011;14000;52.056;8.510;2022-12-29T10:51:10;12.83;;;1.90;;
26277;SDS011;14000;52.056;8.510;2022-12-29T10:53:40;8.30;;;1.83;;
26277;SDS011;14000;52.056;8.510;2022-12-29T10:56:43;11.53;;;1.77;;
26277;SDS011;14000;52.056;8.510;2022-12-29T10:59:03;12.27;;;2.10;;
26277;SDS011;14000;52.056;8.510;2022-12-29T11:01:39;10.93;;;1.80;;
26277;SDS011;14000;52.056;8.510;2022-12-29T11:04:20;17.57;;;2.00;;
26277;SDS011;14000;52.056;8.510;2022-12-29T11:06:51;8.47;;;1.70;;
26277;SDS011;14000;52.056;8.510;2022-12-29T11:09:21;11.00;;;2.47;;
26277;SDS011;14000;52.056;8.510;2022-12-29T11:11:53;11.37;;;2.07;;
26277;SDS011;14000;52.056;8.510;2022-12-29T11:14:19;9.87;;;1.63;;
26277;SDS011;14000;52.056;8.510;2022-12-29T11:16:59;11.13;;;2.00;;
26277;SDS011;14000;52.056;8.510;2022-12-29T11:19:27;10.70;;;2.07;;
26277;SDS011;14000;52.056;8.510;2022-12-29T11:21:56;11.57;;;1.70;;
26277;SDS011;14000;52.056;8.510;2022-12-29T11:25:04;8.83;;;1.60;;
26277;SDS011;14000;52.056;8.510;2022-12-29T11:27:35;9.87;;;1.60;;
26277;SDS011;14000;52.056;8.510;2022-12-29T11:30:00;8.70;;;1.50;;
26277;SDS011;14000;52.056;8.510;2022-12-29T11:32:28;9.77;;;1.70;;
26277;SDS011;14000;52.056;8.510;2022-12-29T11:34:55;11.03;;;1.87;;
26277;SDS011;14000;52.056;8.510;2022-12-29T11:37:38;11.87;;;2.10;;
26277;SDS011;14000;52.056;8.510;2022-12-29T11:40:05;9.43;;;1.50;;
26277;SDS011;14000;52.056;8.510;2022-12-29T11:42:53;11.87;;;1.60;;
26277;SDS011;14000;52.056;8.510;2022-12-29T11:45:25;11.67;;;1.77;;
26277;SDS011;14000;52.056;8.510;2022-12-29T11:48:38;9.83;;;1.77;;
26277;SDS011;14000;52.056;8.510;2022-12-29T11:50:48;9.67;;;1.50;;
26277;SDS011;14000;52.056;8.510;2022-12-29T11:53:27;10.53;;;1.90;;
26277;SDS011;14000;52.056;8.510;2022-12-29T11:56:04;13.53;;;1.63;;
26277;SDS011;14000;52.056;8.510;2022-12-29T11:58:34;10.00;;;1.63;;
26277;SDS011;14000;52.056;8.510;2022-12-29T12:01:02;8.67;;;1.40;;
26277;SDS011;14000;52.056;8.510;2022-12-29T12:03:32;9.97;;;1.50;;
26277;SDS011;14000;52.056;8.510;2022-12-29T12:06:03;10.10;;;1.70;;
26277;SDS011;14000;52.056;8.510;2022-12-29T12:08:48;9.67;;;1.77;;
26277;SDS011;14000;52.056;8.510;2022-12-29T12:11:37;11.90;;;1.60;;
26277;SDS011;14000;52.056;8.510;2022-12-29T12:17:23;8.20;;;1.53;;
26277;SDS011;14000;52.056;8.510;2022-12-29T12:25:48;5.77;;;1.30;;
26277;SDS011;14000;52.056;8.510;2022-12-29T12:31:15;8.40;;;1.63;;
26277;SDS011;14000;52.056;8.510;2022-12-29T12:34:05;13.77;;;2.83;;
26277;SDS011;14000;52.056;8.510;2022-12-29T12:36:58;10.00;;;1.73;;
26277;SDS011;14000;52.056;8.510;2022-12-29T12:42:20;10.23;;;2.03;;
26277;SDS011;14000;52.056;8.510;2022-12-29T12:45:07;11.23;;;1.90;;
26277;SDS011;14000;52.056;8.510;2022-12-29T12:50:38;10.07;;;1.60;;
26277;SDS011;14000;52.056;8.510;2022-12-29T12:58:48;8.23;;;1.77;;
26277;SDS011;14000;52.056;8.510;2022-12-29T13:12:55;12.97;;;2.57;;
26277;SDS011;14000;52.056;8.510;2022-12-29T13:18:18;11.73;;;2.00;;
26277;SDS011;14000;52.056;8.510;2022-12-29T13:23:50;13.70;;;2.07;;
26277;SDS011;14000;52.056;8.510;2022-12-29T13:29:05;10.50;;;1.97;;
26277;SDS011;14000;52.056;8.510;2022-12-29T13:32:19;12.43;;;2.00;;
26277;SDS011;14000;52.056;8.510;2022-12-29T13:37:54;7.40;;;1.60;;
26277;SDS011;14000;52.056;8.510;2022-12-29T13:40:45;14.77;;;1.93;;
26277;SDS011;14000;52.056;8.510;2022-12-29T13:43:19;13.73;;;1.90;;
26277;SDS011;14000;52.056;8.510;2022-12-29T13:45:50;11.83;;;2.07;;
26277;SDS011;14000;52.056;8.510;2022-12-29T13:48:23;14.47;;;2.20;;
26277;SDS011;14000;52.056;8.510;2022-12-29T13:50:58;14.57;;;2.50;;
26277;SDS011;14000;52.056;8.510;2022-12-29T13:53:41;11.57;;;2.20;;
26277;SDS011;14000;52.056;8.510;2022-12-29T13:56:31;14.50;;;2.23;;
26277;SDS011;14000;52.056;8.510;2022-12-29T14:04:22;12.70;;;2.63;;
26277;SDS011;14000;52.056;8.510;2022-12-29T14:07:13;12.00;;;2.47;;
26277;SDS011;14000;52.056;8.510;2022-12-29T14:12:58;17.67;;;3.23;;
26277;SDS011;14000;52.056;8.510;2022-12-29T14:15:06;15.43;;;2.63;;
26277;SDS011;14000;52.056;8.510;2022-12-29T14:17:44;13.30;;;2.47;;
26277;SDS011;14000;52.056;8.510;2022-12-29T14:20:36;12.83;;;2.30;;
26277;SDS011;14000;52.056;8.510;2022-12-29T14:25:54;12.03;;;2.07;;
26277;SDS011;14000;52.056;8.510;2022-12-29T14:28:23;14.70;;;2.20;;
26277;SDS011;14000;52.056;8.510;2022-12-29T14:31:00;17.37;;;3.63;;
26277;SDS011;14000;52.056;8.510;2022-12-29T14:36:39;13.53;;;2.67;;
26277;SDS011;14000;52.056;8.510;2022-12-29T14:42:01;19.27;;;2.50;;
26277;SDS011;14000;52.056;8.510;2022-12-29T14:52:53;14.80;;;2.30;;
26277;SDS011;14000;52.056;8.510;2022-12-29T15:00:44;14.17;;;2.27;;
26277;SDS011;14000;52.056;8.510;2022-12-29T15:03:17;10.00;;;2.00;;
26277;SDS011;14000;52.056;8.510;2022-12-29T15:08:42;13.70;;;2.30;;
26277;SDS011;14000;52.056;8.510;2022-12-29T15:11:16;12.10;;;2.20;;
26277;SDS011;14000;52.056;8.510;2022-12-29T15:13:44;16.43;;;2.33;;
26277;SDS011;14000;52.056;8.510;2022-12-29T15:16:20;11.87;;;1.97;;
26277;SDS011;14000;52.056;8.510;2022-12-29T15:18:57;12.23;;;2.10;;
26277;SDS011;14000;52.056;8.510;2022-12-29T15:21:28;16.07;;;2.47;;
26277;SDS011;14000;52.056;8.510;2022-12-29T15:23:56;10.83;;;2.07;;
26277;SDS011;14000;52.056;8.510;2022-12-29T15:26:22;12.40;;;1.93;;
26277;SDS011;14000;52.056;8.510;2022-12-29T15:28:52;14.77;;;2.37;;
26277;SDS011;14000;52.056;8.510;2022-12-29T15:31:20;15.77;;;2.57;;
26277;SDS011;14000;52.056;8.510;2022-12-29T15:33:51;12.83;;;2.83;;
26277;SDS011;14000;52.056;8.510;2022-12-29T15:36:26;15.17;;;2.47;;
26277;SDS011;14000;52.056;8.510;2022-12-29T15:38:53;13.43;;;2.40;;
26277;SDS011;14000;52.056;8.510;2022-12-29T15:44:28;13.40;;;2.03;;
26277;SDS011;14000;52.056;8.510;2022-12-29T15:46:57;12.77;;;2.20;;
26277;SDS011;14000;52.056;8.510;2022-12-29T15:49:26;9.50;;;2.07;;
26277;SDS011;14000;52.056;8.510;2022-12-29T15:51:52;14.10;;;2.30;;
26277;SDS011;14000;52.056;8.510;2022-12-29T15:54:19;11.43;;;2.43;;
26277;SDS011;14000;52.056;8.510;2022-12-29T15:56:46;11.60;;;2.60;;
26277;SDS011;14000;52.056;8.510;2022-12-29T15:59:22;13.67;;;2.67;;
26277;SDS011;14000;52.056;8.510;2022-12-29T16:01:50;9.53;;;1.97;;
26277;SDS011;14000;52.056;8.510;2022-12-29T16:04:17;13.03;;;2.40;;
26277;SDS011;14000;52.056;8.510;2022-12-29T16:07:03;10.20;;;2.00;;
26277;SDS011;14000;52.056;8.510;2022-12-29T16:09:32;10.83;;;2.37;;
26277;SDS011;14000;52.056;8.510;2022-12-29T16:12:01;12.20;;;2.20;;
26277;SDS011;14000;52.056;8.510;2022-12-29T16:17:09;12.63;;;2.57;;
26277;SDS011;14000;52.056;8.510;2022-12-29T16:19:41;12.60;;;2.63;;
26277;SDS011;14000;52.056;8.510;2022-12-29T16:22:23;11.57;;;2.53;;
26277;SDS011;14000;52.056;8.510;2022-12-29T16:24:59;11.77;;;2.40;;
26277;SDS011;14000;52.056;8.510;2022-12-29T16:27:35;10.03;;;2.10;;
26277;SDS011;14000;52.056;8.510;2022-12-29T16:30:07;11.83;;;2.47;;
26277;SDS011;14000;52.056;8.510;2022-12-29T16:33:28;14.47;;;2.20;;
26277;SDS011;14000;52.056;8.510;2022-12-29T16:39:10;15.27;;;2.93;;
26277;SDS011;14000;52.056;8.510;2022-12-29T16:41:47;9.60;;;1.93;;
26277;SDS011;14000;52.056;8.510;2022-12-29T16:44:21;13.77;;;2.17;;
26277;SDS011;14000;52.056;8.510;2022-12-29T16:49:40;11.90;;;1.93;;
26277;SDS011;14000;52.056;8.510;2022-12-29T16:54:44;13.33;;;2.70;;
26277;SDS011;14000;52.056;8.510;2022-12-29T16:57:20;10.40;;;1.83;;
26277;SDS011;14000;52.056;8.510;2022-12-29T16:59:48;13.30;;;2.27;;
26277;SDS011;14000;52.056;8.510;2022-12-29T17:02:19;14.43;;;3.03;;
26277;SDS011;14000;52.056;8.510;2022-12-29T17:04:46;12.60;;;2.07;;
26277;SDS011;14000;52.056;8.510;2022-12-29T17:07:18;12.33;;;2.13;;
26277;SDS011;14000;52.056;8.510;2022-12-29T17:09:45;11.83;;;2.20;;
26277;SDS011;14000;52.056;8.510;2022-12-29T17:12:13;12.13;;;1.93;;
26277;SDS011;14000;52.056;8.510;2022-12-29T17:14:42;15.03;;;2.67;;
26277;SDS011;14000;52.056;8.510;2022-12-29T17:19:46;12.70;;;2.90;;
26277;SDS011;14000;52.056;8.510;2022-12-29T17:22:16;10.13;;;3.90;;
26277;SDS011;14000;52.056;8.510;2022-12-29T17:24:44;11.37;;;3.40;;
26277;SDS011;14000;52.056;8.510;2022-12-29T17:27:13;10.50;;;2.87;;
26277;SDS011;14000;52.056;8.510;2022-12-29T17:29:57;13.10;;;3.27;;
26277;SDS011;14000;52.056;8.510;2022-12-29T17:32:37;12.27;;;3.93;;